createdAt,value
2023-02-09T00:00:11.939Z,10.10
2023-02-09T00:02:38.825Z,12.32
2023-02-09T00:05:06.172Z,10.65
2023-02-09T00:07:33.086Z,14.43
2023-02-09T00:09:59.958Z,9.48
2023-02-09T00:12:45.270Z,14.68
2023-02-09T00:15:12.082Z,10.85
2023-02-09T00:17:38.873Z,12.00
2023-02-09T00:20:07.195Z,24.00
2023-02-09T00:22:34.123Z,20.05
2023-02-09T00:25:00.897Z,11.52
2023-02-09T00:27:27.689Z,13.73
2023-02-09T00:29:54.393Z,11.27
2023-02-09T00:32:21.107Z,8.43
2023-02-09T00:34:47.932Z,13.05
2023-02-09T00:37:14.750Z,11.07
2023-02-09T00:39:41.451Z,12.45
2023-02-09T00:42:08.266Z,15.27
2023-02-09T00:44:37.222Z,11.10
2023-02-09T00:47:05.248Z,9.52
2023-02-09T00:49:32.399Z,10.27
2023-02-09T00:51:59.201Z,10.90
2023-02-09T00:54:25.992Z,16.42
2023-02-09T00:56:52.693Z,11.65
2023-02-09T00:59:19.456Z,11.15
2023-02-09T01:01:46.214Z,11.35
2023-02-09T01:04:13.230Z,14.85
2023-02-09T01:06:39.963Z,11.38
2023-02-09T01:09:06.697Z,14.23
2023-02-09T01:11:33.472Z,11.10
2023-02-09T01:14:01.006Z,12.43
2023-02-09T01:16:28.962Z,10.68
2023-02-09T01:18:56.171Z,15.25
2023-02-09T01:21:24.403Z,12.88
2023-02-09T01:23:51.211Z,9.98
2023-02-09T01:26:18.827Z,11.98
2023-02-09T01:28:50.975Z,12.95
2023-02-09T01:31:22.634Z,12.02
2023-02-09T01:33:49.511Z,10.18
2023-02-09T01:36:16.379Z,11.57
2023-02-09T01:38:43.459Z,13.20
2023-02-09T01:41:10.258Z,16.83
2023-02-09T01:43:51.984Z,12.60
2023-02-09T01:46:18.788Z,27.98
2023-02-09T01:48:46.569Z,15.55
2023-02-09T01:51:13.736Z,11.13
2023-02-09T01:53:40.782Z,10.88
2023-02-09T01:56:17.270Z,17.20
2023-02-09T01:58:45.831Z,13.50
2023-02-09T02:01:13.843Z,13.85
2023-02-09T02:03:40.940Z,11.63
2023-02-09T02:06:14.206Z,14.43
2023-02-09T02:08:58.720Z,10.05
2023-02-09T02:11:28.254Z,12.40
2023-02-09T02:13:55.238Z,21.33
2023-02-09T02:16:31.308Z,8.35
2023-02-09T02:19:25.650Z,16.70
2023-02-09T02:22:27.040Z,10.82
2023-02-09T02:25:12.650Z,12.40
2023-02-09T02:28:00.718Z,13.02
2023-02-09T02:30:58.221Z,13.35
2023-02-09T02:34:04.560Z,12.75
2023-02-09T02:36:36.029Z,12.77
2023-02-09T02:39:31.569Z,19.67
2023-02-09T02:42:21.991Z,12.35
2023-02-09T02:45:03.951Z,12.98
2023-02-09T02:47:34.727Z,17.70
2023-02-09T02:50:10.553Z,13.05
2023-02-09T02:52:40.063Z,13.25
2023-02-09T02:55:13.537Z,13.07
2023-02-09T02:57:44.696Z,13.48
2023-02-09T03:00:17.397Z,14.57
2023-02-09T03:02:49.202Z,11.90
2023-02-09T03:05:17.574Z,16.80
2023-02-09T03:07:44.592Z,13.85
2023-02-09T03:10:35.513Z,12.65
2023-02-09T03:13:21.237Z,13.25
2023-02-09T03:16:06.643Z,17.65
2023-02-09T03:18:48.510Z,17.65
2023-02-09T03:21:48.061Z,15.05
2023-02-09T03:24:55.706Z,15.38
2023-02-09T03:27:29.185Z,14.70
2023-02-09T03:30:00.882Z,16.60
2023-02-09T03:32:28.162Z,13.40
2023-02-09T03:34:56.015Z,13.57
2023-02-09T03:37:23.638Z,14.57
2023-02-09T03:39:50.362Z,12.30
2023-02-09T03:42:17.236Z,14.25
2023-02-09T03:44:43.947Z,14.88
2023-02-09T03:47:10.990Z,10.75
2023-02-09T03:49:39.914Z,15.30
2023-02-09T03:52:10.152Z,16.75
2023-02-09T03:54:37.367Z,13.95
2023-02-09T03:57:04.787Z,12.38
2023-02-09T03:59:35.449Z,24.58
2023-02-09T04:02:03.037Z,11.05
2023-02-09T04:04:29.765Z,17.15
2023-02-09T04:06:57.483Z,12.13
2023-02-09T04:09:25.847Z,15.25
2023-02-09T04:11:52.643Z,10.13
2023-02-09T04:14:19.576Z,12.35
2023-02-09T04:16:46.399Z,10.93
2023-02-09T04:19:13.246Z,11.65
2023-02-09T04:21:40.029Z,12.45
2023-02-09T04:24:07.959Z,13.07
2023-02-09T04:26:35.353Z,15.77
2023-02-09T04:29:02.100Z,11.73
2023-02-09T04:31:28.989Z,17.98
2023-02-09T04:33:55.965Z,9.65
2023-02-09T04:36:23.465Z,10.25
2023-02-09T04:38:50.713Z,10.98
2023-02-09T04:41:17.771Z,12.98
2023-02-09T04:43:46.187Z,15.23
2023-02-09T04:46:14.515Z,14.80
2023-02-09T04:48:41.558Z,11.23
2023-02-09T04:51:08.788Z,11.02
2023-02-09T04:53:35.884Z,10.95
2023-02-09T04:56:02.946Z,15.00
2023-02-09T04:58:48.010Z,13.93
2023-02-09T05:01:22.642Z,17.05
2023-02-09T05:03:49.472Z,12.43
2023-02-09T05:06:16.476Z,16.48
2023-02-09T05:08:44.385Z,18.15
2023-02-09T05:11:11.586Z,12.93
2023-02-09T05:13:39.118Z,13.80
2023-02-09T05:16:12.379Z,15.02
2023-02-09T05:18:39.130Z,18.88
2023-02-09T05:21:06.000Z,24.67
2023-02-09T05:23:32.986Z,19.67
2023-02-09T05:25:59.723Z,22.08
2023-02-09T05:28:26.905Z,19.88
2023-02-09T05:30:54.032Z,15.77
2023-02-09T05:33:21.812Z,19.65
2023-02-09T05:35:48.914Z,20.20
2023-02-09T05:38:15.734Z,19.63
2023-02-09T05:40:44.203Z,15.20
2023-02-09T05:43:11.825Z,15.75
2023-02-09T05:45:38.630Z,17.35
2023-02-09T05:48:05.574Z,21.25
2023-02-09T05:50:32.575Z,25.90
2023-02-09T05:53:00.659Z,24.05
2023-02-09T05:55:27.554Z,22.60
2023-02-09T05:57:54.328Z,18.10
2023-02-09T06:00:21.548Z,20.58
2023-02-09T06:02:48.264Z,20.38
2023-02-09T06:05:15.021Z,19.65
2023-02-09T06:07:41.790Z,18.25
2023-02-09T06:10:08.923Z,21.48
2023-02-09T06:12:35.663Z,22.70
2023-02-09T06:15:03.815Z,17.83
2023-02-09T06:17:30.541Z,25.73
2023-02-09T06:19:57.319Z,24.90
2023-02-09T06:22:24.045Z,25.80
2023-02-09T06:24:50.782Z,29.30
2023-02-09T06:27:17.530Z,26.80
2023-02-09T06:29:44.288Z,23.02
2023-02-09T06:32:11.296Z,18.10
2023-02-09T06:34:38.061Z,24.77
2023-02-09T06:37:04.795Z,27.92
2023-02-09T06:39:31.505Z,20.83
2023-02-09T06:41:58.289Z,30.73
2023-02-09T06:44:24.994Z,32.75
2023-02-09T06:46:51.722Z,22.55
2023-02-09T06:49:19.065Z,27.55
2023-02-09T06:51:46.098Z,32.85
2023-02-09T06:54:13.035Z,25.38
2023-02-09T06:56:39.732Z,30.15
2023-02-09T06:59:06.454Z,31.38
2023-02-09T07:01:33.269Z,36.42
2023-02-09T07:04:00.037Z,29.83
2023-02-09T07:06:27.084Z,31.42
2023-02-09T07:08:53.852Z,31.92
2023-02-09T07:11:20.997Z,33.90
2023-02-09T07:13:47.822Z,31.33
2023-02-09T07:16:15.253Z,32.30
2023-02-09T07:18:42.190Z,32.22
2023-02-09T07:21:15.857Z,32.03
2023-02-09T07:23:42.660Z,34.63
2023-02-09T07:26:15.183Z,29.33
2023-02-09T07:28:42.520Z,26.85
2023-02-09T07:31:11.895Z,28.38
2023-02-09T07:33:38.991Z,31.20
2023-02-09T07:36:10.842Z,29.92
2023-02-09T07:38:38.621Z,28.23
2023-02-09T07:41:07.285Z,33.42
2023-02-09T07:43:34.953Z,27.80
2023-02-09T07:46:04.607Z,27.13
2023-02-09T07:48:32.023Z,24.58
2023-02-09T07:50:59.525Z,30.55
2023-02-09T07:53:27.154Z,33.10
2023-02-09T07:55:54.070Z,22.35
2023-02-09T07:58:22.046Z,25.60
2023-02-09T08:00:50.300Z,24.80
2023-02-09T08:03:20.420Z,22.75
2023-02-09T08:05:50.245Z,26.48
2023-02-09T08:08:16.987Z,23.65
2023-02-09T08:10:44.114Z,19.40
2023-02-09T08:13:11.825Z,25.92
2023-02-09T08:15:45.331Z,27.00
2023-02-09T08:18:16.256Z,21.15
2023-02-09T08:20:44.761Z,25.85
2023-02-09T08:23:33.627Z,23.65
2023-02-09T08:26:05.802Z,28.27
2023-02-09T08:28:43.603Z,34.95
2023-02-09T08:31:12.876Z,29.58
2023-02-09T08:33:40.330Z,27.88
2023-02-09T08:36:07.733Z,24.10
2023-02-09T08:38:35.361Z,26.08
2023-02-09T08:41:04.646Z,28.80
2023-02-09T08:43:32.027Z,33.10
2023-02-09T08:46:17.460Z,26.13
2023-02-09T08:48:46.736Z,27.85
2023-02-09T08:51:15.203Z,27.50
2023-02-09T08:53:43.389Z,31.50
2023-02-09T08:56:10.697Z,27.55
2023-02-09T08:58:37.431Z,30.45
2023-02-09T09:01:05.411Z,28.05
2023-02-09T09:03:33.227Z,24.92
2023-02-09T09:06:05.964Z,28.77
2023-02-09T09:08:35.295Z,26.35
2023-02-09T09:11:02.421Z,29.00
2023-02-09T09:13:29.142Z,25.77
2023-02-09T09:15:56.110Z,33.33
2023-02-09T09:18:24.465Z,28.35
2023-02-09T09:20:51.864Z,30.02
2023-02-09T09:23:19.062Z,27.80
2023-02-09T09:25:46.099Z,30.73
2023-02-09T09:28:13.235Z,27.60
2023-02-09T09:30:40.094Z,24.83
2023-02-09T09:33:06.961Z,26.48
2023-02-09T09:35:33.822Z,29.52
2023-02-09T09:38:01.654Z,34.25
2023-02-09T09:40:31.717Z,25.45
2023-02-09T09:43:02.294Z,29.10
2023-02-09T09:45:32.359Z,29.65
2023-02-09T09:48:00.175Z,30.83
2023-02-09T09:50:39.039Z,29.00
2023-02-09T09:53:16.227Z,31.75
2023-02-09T09:55:45.054Z,35.22
2023-02-09T09:58:18.569Z,34.63
2023-02-09T10:00:45.647Z,35.38
2023-02-09T10:03:21.335Z,35.42
2023-02-09T10:05:50.850Z,32.30
2023-02-09T10:08:32.633Z,40.03
2023-02-09T10:11:10.042Z,37.95
2023-02-09T10:13:40.846Z,42.35
2023-02-09T10:16:20.999Z,33.42
2023-02-09T10:18:59.656Z,32.33
2023-02-09T10:21:29.969Z,35.08
2023-02-09T10:24:02.638Z,33.40
2023-02-09T10:26:35.287Z,31.55
2023-02-09T10:29:10.802Z,32.42
2023-02-09T10:31:42.921Z,33.03
2023-02-09T10:34:22.066Z,31.35
2023-02-09T10:36:52.199Z,33.10
2023-02-09T10:39:22.736Z,31.70
2023-02-09T10:41:52.494Z,27.63
2023-02-09T10:44:21.698Z,32.03
2023-02-09T10:46:49.344Z,28.15
2023-02-09T10:49:30.160Z,31.60
2023-02-09T10:52:14.052Z,32.00
2023-02-09T10:54:52.443Z,31.52
2023-02-09T10:57:33.833Z,33.38
2023-02-09T11:00:17.374Z,28.92
2023-02-09T11:02:51.921Z,34.50
2023-02-09T11:05:21.463Z,31.08
2023-02-09T11:08:22.204Z,38.03
2023-02-09T11:10:55.950Z,32.22
2023-02-09T11:13:25.197Z,30.58
2023-02-09T11:16:25.937Z,31.52
2023-02-09T11:19:11.270Z,34.05
2023-02-09T11:22:01.469Z,37.92
2023-02-09T11:25:07.238Z,31.77
2023-02-09T11:27:57.090Z,32.05
2023-02-09T11:30:54.474Z,31.05
2023-02-09T11:33:30.231Z,31.23
2023-02-09T11:36:05.563Z,29.88
2023-02-09T11:38:44.131Z,31.35
2023-02-09T11:41:34.430Z,38.78
2023-02-09T11:44:04.298Z,34.17
2023-02-09T11:46:33.787Z,35.17
2023-02-09T11:49:06.727Z,33.17
2023-02-09T11:51:37.768Z,38.28
2023-02-09T11:54:20.415Z,33.17
2023-02-09T11:56:55.381Z,34.53
2023-02-09T11:59:39.929Z,36.00
2023-02-09T12:02:42.739Z,31.55
2023-02-09T12:05:16.837Z,29.08
2023-02-09T12:08:00.960Z,30.75
2023-02-09T12:10:35.686Z,36.40
2023-02-09T12:13:39.618Z,32.75
2023-02-09T12:16:21.899Z,43.88
2023-02-09T12:18:49.017Z,33.85
2023-02-09T12:21:28.424Z,41.00
2023-02-09T12:23:55.222Z,48.42
2023-02-09T12:26:21.919Z,35.60
2023-02-09T12:29:04.676Z,35.35
2023-02-09T12:31:52.369Z,35.33
2023-02-09T12:34:37.895Z,33.13
2023-02-09T12:37:13.607Z,36.63
2023-02-09T12:40:02.366Z,34.95
2023-02-09T12:42:38.929Z,41.03
2023-02-09T12:45:30.829Z,40.22
2023-02-09T12:48:01.064Z,35.03
2023-02-09T12:50:53.272Z,31.63
2023-02-09T12:53:22.866Z,36.70
2023-02-09T12:56:09.885Z,41.88
2023-02-09T12:58:37.979Z,37.00
2023-02-09T13:01:05.929Z,39.60
2023-02-09T13:03:40.683Z,34.10
2023-02-09T13:06:24.318Z,38.47
2023-02-09T13:08:54.572Z,33.85
2023-02-09T13:11:29.558Z,39.05
2023-02-09T13:14:00.107Z,33.30
2023-02-09T13:16:29.989Z,40.63
2023-02-09T13:19:10.771Z,33.78
2023-02-09T13:22:01.428Z,36.10
2023-02-09T13:24:39.370Z,32.03
2023-02-09T13:27:19.057Z,32.70
2023-02-09T13:29:53.776Z,31.42
2023-02-09T13:32:55.089Z,37.40
2023-02-09T13:35:24.752Z,35.38
2023-02-09T13:37:59.930Z,33.67
2023-02-09T13:40:32.061Z,37.30
2023-02-09T13:43:07.747Z,35.05
2023-02-09T13:45:34.483Z,33.22
2023-02-09T13:48:04.181Z,38.05
2023-02-09T13:50:32.019Z,38.03
2023-02-09T13:53:10.808Z,29.42
2023-02-09T13:55:40.006Z,40.35
2023-02-09T13:58:14.036Z,32.75
2023-02-09T14:00:42.439Z,30.63
2023-02-09T14:03:21.713Z,38.53
2023-02-09T14:05:51.535Z,32.13
2023-02-09T14:08:19.859Z,33.05
2023-02-09T14:11:12.831Z,30.13
2023-02-09T14:13:49.916Z,28.65
2023-02-09T14:16:18.785Z,33.85
2023-02-09T14:18:49.497Z,31.77
2023-02-09T14:21:20.907Z,36.72
2023-02-09T14:23:55.552Z,38.17
2023-02-09T14:26:28.299Z,31.40
2023-02-09T14:29:18.420Z,37.35
2023-02-09T14:31:57.413Z,38.90
2023-02-09T14:34:38.675Z,31.38
2023-02-09T14:37:11.604Z,27.80
2023-02-09T14:40:12.257Z,30.52
2023-02-09T14:43:22.995Z,28.63
2023-02-09T14:46:12.164Z,33.20
2023-02-09T14:48:38.871Z,33.65
2023-02-09T14:51:17.573Z,44.05
2023-02-09T14:53:49.293Z,30.65
2023-02-09T14:56:30.464Z,38.20
2023-02-09T14:58:57.244Z,29.75
2023-02-09T15:01:24.285Z,31.88
2023-02-09T15:03:51.138Z,33.10
2023-02-09T15:06:17.961Z,30.38
2023-02-09T15:08:44.869Z,36.92
2023-02-09T15:11:42.512Z,29.60
2023-02-09T15:14:10.981Z,28.27
2023-02-09T15:16:37.668Z,43.38
2023-02-09T15:19:10.536Z,35.05
2023-02-09T15:21:37.372Z,34.08
2023-02-09T15:24:04.543Z,33.20
2023-02-09T15:26:35.206Z,35.95
2023-02-09T15:29:02.187Z,35.38
2023-02-09T15:31:29.216Z,36.78
2023-02-09T15:33:56.090Z,35.55
2023-02-09T15:36:23.668Z,32.83
2023-02-09T15:38:54.900Z,36.13
2023-02-09T15:41:40.932Z,30.45
2023-02-09T15:44:45.283Z,37.20
2023-02-09T15:47:30.979Z,34.97
2023-02-09T15:49:57.686Z,37.90
2023-02-09T15:52:24.895Z,41.15
2023-02-09T15:54:52.780Z,37.15
2023-02-09T15:57:19.705Z,37.58
2023-02-09T15:59:47.110Z,38.15
2023-02-09T16:02:15.799Z,35.70
2023-02-09T16:04:42.989Z,37.85
2023-02-09T16:07:19.569Z,33.78
2023-02-09T16:09:46.384Z,34.08
2023-02-09T16:12:13.085Z,34.40
2023-02-09T16:14:40.257Z,35.35
2023-02-09T16:17:08.119Z,32.67
2023-02-09T16:19:35.032Z,34.63
2023-02-09T16:22:05.004Z,39.90
2023-02-09T16:24:42.020Z,43.10
2023-02-09T16:27:34.847Z,42.35
2023-02-09T16:30:01.687Z,44.53
2023-02-09T16:32:28.764Z,41.85
2023-02-09T16:35:04.558Z,46.08
2023-02-09T16:37:37.835Z,49.90
2023-02-09T16:40:27.123Z,46.65
2023-02-09T16:42:54.638Z,46.20
2023-02-09T16:45:22.241Z,53.50
2023-02-09T16:47:52.797Z,45.05
2023-02-09T16:50:44.494Z,46.20
2023-02-09T16:53:24.974Z,47.58
2023-02-09T16:55:51.952Z,51.00
2023-02-09T16:58:18.896Z,55.83
2023-02-09T17:00:46.103Z,48.28
2023-02-09T17:03:17.079Z,46.28
2023-02-09T17:05:50.150Z,52.95
2023-02-09T17:08:18.484Z,51.70
2023-02-09T17:10:47.107Z,52.10
2023-02-09T17:13:17.432Z,56.40
2023-02-09T17:15:48.369Z,53.85
2023-02-09T17:18:28.741Z,62.38
2023-02-09T17:20:57.793Z,50.40
2023-02-09T17:23:28.143Z,57.72
2023-02-09T17:25:55.658Z,51.92
2023-02-09T17:28:24.491Z,60.13
2023-02-09T17:30:52.728Z,50.45
2023-02-09T17:33:25.765Z,57.15
2023-02-09T17:36:23.886Z,54.33
2023-02-09T17:38:41.084Z,54.95
2023-02-09T17:41:15.943Z,56.15
2023-02-09T17:43:43.402Z,56.65
2023-02-09T17:46:19.262Z,59.25
2023-02-09T17:48:47.005Z,53.92
2023-02-09T17:51:31.985Z,52.25
2023-02-09T17:53:58.911Z,61.63
2023-02-09T17:56:25.692Z,59.17
2023-02-09T17:58:52.585Z,55.55
2023-02-09T18:01:26.563Z,55.90
2023-02-09T18:03:58.725Z,50.00
2023-02-09T18:06:38.342Z,50.83
2023-02-09T18:09:09.259Z,52.10
2023-02-09T18:11:45.076Z,54.13
2023-02-09T18:14:17.911Z,49.88
2023-02-09T18:16:45.217Z,56.67
2023-02-09T18:19:13.221Z,56.72
2023-02-09T18:21:52.878Z,56.17
2023-02-09T18:24:21.373Z,53.22
2023-02-09T18:26:49.913Z,55.60
2023-02-09T18:29:17.976Z,59.22
2023-02-09T18:31:44.856Z,54.50
2023-02-09T18:34:11.541Z,61.55
2023-02-09T18:36:38.306Z,54.38
2023-02-09T18:39:05.012Z,55.40
2023-02-09T18:41:31.756Z,70.63
2023-02-09T18:43:58.754Z,58.97
2023-02-09T18:46:27.012Z,60.10
2023-02-09T18:48:54.680Z,59.35
2023-02-09T18:51:21.874Z,65.68
2023-02-09T18:53:50.198Z,69.30
2023-02-09T18:56:21.865Z,62.33
2023-02-09T18:58:52.278Z,69.72
2023-02-09T19:01:23.872Z,62.00
2023-02-09T19:03:51.778Z,68.07
2023-02-09T19:06:22.616Z,59.88
2023-02-09T19:08:50.487Z,55.00
2023-02-09T19:11:19.896Z,67.93
2023-02-09T19:14:05.687Z,67.18
2023-02-09T19:16:32.783Z,59.15
2023-02-09T19:19:00.746Z,65.20
2023-02-09T19:21:28.628Z,59.30
2023-02-09T19:23:55.726Z,66.75
2023-02-09T19:26:22.553Z,57.78
2023-02-09T19:28:49.379Z,52.85
2023-02-09T19:31:18.015Z,60.22
2023-02-09T19:33:44.837Z,65.55
2023-02-09T19:36:11.704Z,59.50
2023-02-09T19:38:38.481Z,53.80
2023-02-09T19:41:11.879Z,63.35
2023-02-09T19:43:39.947Z,64.65
2023-02-09T19:46:07.823Z,58.92
2023-02-09T19:48:34.712Z,55.92
2023-02-09T19:51:01.477Z,57.00
2023-02-09T19:53:28.657Z,59.75
2023-02-09T19:55:55.773Z,67.47
2023-02-09T19:58:23.022Z,60.65
2023-02-09T20:00:51.746Z,61.42
2023-02-09T20:03:19.112Z,57.55
2023-02-09T20:05:46.587Z,64.97
2023-02-09T20:08:16.588Z,58.53
2023-02-09T20:10:44.466Z,66.30
2023-02-09T20:13:13.041Z,55.58
2023-02-09T20:15:44.213Z,60.25
2023-02-09T20:18:13.520Z,57.78
2023-02-09T20:20:43.127Z,64.80
2023-02-09T20:23:10.569Z,56.15
2023-02-09T20:25:40.806Z,61.17
2023-02-09T20:28:08.042Z,56.85
2023-02-09T20:30:35.162Z,62.60
2023-02-09T20:33:01.948Z,59.92
2023-02-09T20:35:28.919Z,59.92
2023-02-09T20:37:55.694Z,66.65
2023-02-09T20:40:22.763Z,61.40
2023-02-09T20:43:08.281Z,60.95
2023-02-09T20:45:53.872Z,60.35
2023-02-09T20:48:20.772Z,52.67
2023-02-09T20:50:47.885Z,61.33
2023-02-09T20:53:14.830Z,60.20
2023-02-09T20:55:42.939Z,65.20
2023-02-09T20:58:12.757Z,64.38
2023-02-09T21:00:43.189Z,59.67
2023-02-09T21:03:10.095Z,59.55
2023-02-09T21:05:37.231Z,60.95
2023-02-09T21:08:06.946Z,63.85
2023-02-09T21:10:35.528Z,67.03
2023-02-09T21:13:03.923Z,69.38
2023-02-09T21:15:30.829Z,58.70
2023-02-09T21:17:57.705Z,63.15
2023-02-09T21:20:24.683Z,64.88
2023-02-09T21:22:51.668Z,60.85
2023-02-09T21:25:21.754Z,68.03
2023-02-09T21:27:48.741Z,62.05
2023-02-09T21:30:16.543Z,71.13
2023-02-09T21:32:43.518Z,61.38
2023-02-09T21:35:10.941Z,62.22
2023-02-09T21:37:38.902Z,70.80
2023-02-09T21:40:06.742Z,68.07
2023-02-09T21:42:35.575Z,66.32
2023-02-09T21:45:02.993Z,65.43
2023-02-09T21:47:35.984Z,62.47
2023-02-09T21:50:03.476Z,68.00
2023-02-09T21:52:31.576Z,58.72
2023-02-09T21:54:58.394Z,67.18
2023-02-09T21:57:26.115Z,65.32
2023-02-09T21:59:53.675Z,65.90
2023-02-09T22:02:21.055Z,69.68
2023-02-09T22:04:49.767Z,69.07
2023-02-09T22:07:16.637Z,55.40
2023-02-09T22:09:43.445Z,54.65
2023-02-09T22:12:10.285Z,63.92
2023-02-09T22:14:37.224Z,73.18
2023-02-09T22:17:04.004Z,60.65
2023-02-09T22:19:30.915Z,64.65
2023-02-09T22:21:58.144Z,63.15
2023-02-09T22:24:25.271Z,66.63
2023-02-09T22:26:52.493Z,64.13
2023-02-09T22:29:19.722Z,62.38
2023-02-09T22:31:46.543Z,65.82
2023-02-09T22:34:13.863Z,54.20
2023-02-09T22:36:40.685Z,62.30
2023-02-09T22:39:08.313Z,65.03
2023-02-09T22:41:35.580Z,59.90
2023-02-09T22:44:08.361Z,71.22
2023-02-09T22:46:37.564Z,73.57
2023-02-09T22:49:12.124Z,57.72
2023-02-09T22:51:39.179Z,58.85
2023-02-09T22:54:06.490Z,74.43
2023-02-09T22:56:33.587Z,66.03
2023-02-09T22:59:01.569Z,67.75
2023-02-09T23:01:29.271Z,60.05
2023-02-09T23:03:56.276Z,57.25
2023-02-09T23:06:24.646Z,64.97
2023-02-09T23:08:57.234Z,59.30
2023-02-09T23:11:24.281Z,61.85
2023-02-09T23:14:03.886Z,60.13
2023-02-09T23:16:35.642Z,57.00
2023-02-09T23:19:04.750Z,68.45
2023-02-09T23:21:34.719Z,76.30
2023-02-09T23:24:01.834Z,61.20
2023-02-09T23:26:28.713Z,55.25
2023-02-09T23:28:57.704Z,62.13
2023-02-09T23:31:24.823Z,61.75
2023-02-09T23:33:51.712Z,63.08
2023-02-09T23:36:21.299Z,56.45
2023-02-09T23:38:51.727Z,68.80
2023-02-09T23:41:19.611Z,65.13
2023-02-09T23:43:47.517Z,65.68
2023-02-09T23:46:23.170Z,68.32
2023-02-09T23:48:50.780Z,71.25
2023-02-09T23:51:19.766Z,68.72
2023-02-09T23:53:47.819Z,62.30
2023-02-09T23:56:16.249Z,61.90
2023-02-09T23:58:45.381Z,61.63
